Terminal Aerodrome Forecast
Issued by NWS

Current Version | Previous Version | Graphics & Text | Print | Product List | Glossary On
Versions: 1 2 3 4 5 6 7 8 9 10 11 12 13 14
000
FTUS41 KILN 040541
TAFLUK
TAF
KLUK 040541Z 0406/0506 27013G20KT P6SM OVC040
     FM040800 27010KT P6SM OVC028
     FM041800 28007KT P6SM BKN028
     FM042000 29006KT P6SM SCT040
     FM050000 30004KT P6SM SKC=

USA.gov is the U.S. government's official web portal to all federal, state and local government web resources and services.